sensor_id;sensor_type;location;lat;lon;timestamp;P1;durP1;ratioP1;P2;durP2;ratioP2
4909;SDS011;2470;49.868;8.660;2023-02-15T00:01:38;14.23;;;7.10;;
4909;SDS011;2470;49.868;8.660;2023-02-15T00:04:04;10.17;;;5.10;;
4909;SDS011;2470;49.868;8.660;2023-02-15T00:06:30;14.40;;;6.60;;
4909;SDS011;2470;49.868;8.660;2023-02-15T00:08:56;13.60;;;7.63;;
4909;SDS011;2470;49.868;8.660;2023-02-15T00:11:23;12.20;;;5.77;;
4909;SDS011;2470;49.868;8.660;2023-02-15T00:14:15;16.07;;;5.43;;
4909;SDS011;2470;49.868;8.660;2023-02-15T00:16:47;14.20;;;6.60;;
4909;SDS011;2470;49.868;8.660;2023-02-15T00:19:15;18.00;;;7.40;;
4909;SDS011;2470;49.868;8.660;2023-02-15T00:21:41;13.77;;;7.43;;
4909;SDS011;2470;49.868;8.660;2023-02-15T00:24:07;12.33;;;6.57;;
4909;SDS011;2470;49.868;8.660;2023-02-15T00:26:34;14.27;;;7.03;;
4909;SDS011;2470;49.868;8.660;2023-02-15T00:29:01;19.07;;;6.30;;
4909;SDS011;2470;49.868;8.660;2023-02-15T00:31:27;14.93;;;6.83;;
4909;SDS011;2470;49.868;8.660;2023-02-15T00:33:55;14.57;;;6.83;;
4909;SDS011;2470;49.868;8.660;2023-02-15T00:36:21;15.80;;;7.33;;
4909;SDS011;2470;49.868;8.660;2023-02-15T00:38:46;23.10;;;7.00;;
4909;SDS011;2470;49.868;8.660;2023-02-15T00:41:12;17.87;;;8.43;;
4909;SDS011;2470;49.868;8.660;2023-02-15T00:43:37;18.07;;;7.70;;
4909;SDS011;2470;49.868;8.660;2023-02-15T00:46:03;13.50;;;6.70;;
4909;SDS011;2470;49.868;8.660;2023-02-15T00:48:30;11.33;;;6.43;;
4909;SDS011;2470;49.868;8.660;2023-02-15T00:50:56;15.90;;;6.03;;
4909;SDS011;2470;49.868;8.660;2023-02-15T00:53:24;25.77;;;11.07;;
4909;SDS011;2470;49.868;8.660;2023-02-15T00:55:50;13.87;;;6.10;;
4909;SDS011;2470;49.868;8.660;2023-02-15T00:58:16;12.43;;;6.03;;
4909;SDS011;2470;49.868;8.660;2023-02-15T01:00:42;13.73;;;8.03;;
4909;SDS011;2470;49.868;8.660;2023-02-15T01:03:09;14.13;;;7.20;;
4909;SDS011;2470;49.868;8.660;2023-02-15T01:05:36;16.60;;;7.80;;
4909;SDS011;2470;49.868;8.660;2023-02-15T01:08:01;16.97;;;6.77;;
4909;SDS011;2470;49.868;8.660;2023-02-15T01:10:27;22.20;;;7.97;;
4909;SDS011;2470;49.868;8.660;2023-02-15T01:12:53;10.77;;;6.30;;
4909;SDS011;2470;49.868;8.660;2023-02-15T01:15:19;15.23;;;6.30;;
4909;SDS011;2470;49.868;8.660;2023-02-15T01:17:45;17.40;;;8.13;;
4909;SDS011;2470;49.868;8.660;2023-02-15T01:20:20;15.10;;;7.57;;
4909;SDS011;2470;49.868;8.660;2023-02-15T01:22:47;12.90;;;5.40;;
4909;SDS011;2470;49.868;8.660;2023-02-15T01:25:14;25.43;;;7.33;;
4909;SDS011;2470;49.868;8.660;2023-02-15T01:27:41;21.80;;;9.80;;
4909;SDS011;2470;49.868;8.660;2023-02-15T01:30:06;11.67;;;6.57;;
4909;SDS011;2470;49.868;8.660;2023-02-15T01:32:33;15.03;;;6.63;;
4909;SDS011;2470;49.868;8.660;2023-02-15T01:34:59;18.47;;;8.00;;
4909;SDS011;2470;49.868;8.660;2023-02-15T01:37:24;20.07;;;7.90;;
4909;SDS011;2470;49.868;8.660;2023-02-15T01:39:50;12.23;;;6.70;;
4909;SDS011;2470;49.868;8.660;2023-02-15T01:42:20;12.00;;;6.27;;
4909;SDS011;2470;49.868;8.660;2023-02-15T01:44:55;17.90;;;6.90;;
4909;SDS011;2470;49.868;8.660;2023-02-15T01:47:31;13.50;;;6.50;;
4909;SDS011;2470;49.868;8.660;2023-02-15T01:50:10;14.63;;;7.23;;
4909;SDS011;2470;49.868;8.660;2023-02-15T01:52:49;12.40;;;5.93;;
4909;SDS011;2470;49.868;8.660;2023-02-15T01:55:20;11.03;;;6.00;;
4909;SDS011;2470;49.868;8.660;2023-02-15T01:57:48;11.23;;;7.40;;
4909;SDS011;2470;49.868;8.660;2023-02-15T02:00:14;13.40;;;7.73;;
4909;SDS011;2470;49.868;8.660;2023-02-15T02:02:42;13.80;;;6.80;;
4909;SDS011;2470;49.868;8.660;2023-02-15T02:05:12;11.07;;;7.97;;
4909;SDS011;2470;49.868;8.660;2023-02-15T02:07:38;11.53;;;6.93;;
4909;SDS011;2470;49.868;8.660;2023-02-15T02:10:09;13.00;;;5.10;;
4909;SDS011;2470;49.868;8.660;2023-02-15T02:12:37;15.47;;;7.20;;
4909;SDS011;2470;49.868;8.660;2023-02-15T02:15:03;9.30;;;5.23;;
4909;SDS011;2470;49.868;8.660;2023-02-15T02:17:45;17.43;;;6.00;;
4909;SDS011;2470;49.868;8.660;2023-02-15T02:26:07;10.13;;;6.53;;
4909;SDS011;2470;49.868;8.660;2023-02-15T02:29:18;13.10;;;6.17;;
4909;SDS011;2470;49.868;8.660;2023-02-15T02:40:30;16.40;;;5.93;;
4909;SDS011;2470;49.868;8.660;2023-02-15T02:43:05;15.20;;;5.87;;
4909;SDS011;2470;49.868;8.660;2023-02-15T02:45:43;15.10;;;6.67;;
4909;SDS011;2470;49.868;8.660;2023-02-15T02:48:15;11.30;;;5.40;;
4909;SDS011;2470;49.868;8.660;2023-02-15T02:50:44;14.67;;;7.20;;
4909;SDS011;2470;49.868;8.660;2023-02-15T02:53:10;9.10;;;5.27;;
4909;SDS011;2470;49.868;8.660;2023-02-15T02:58:27;13.10;;;6.47;;
4909;SDS011;2470;49.868;8.660;2023-02-15T03:00:57;6.87;;;4.77;;
4909;SDS011;2470;49.868;8.660;2023-02-15T03:03:36;16.50;;;6.60;;
4909;SDS011;2470;49.868;8.660;2023-02-15T03:06:07;16.20;;;8.07;;
4909;SDS011;2470;49.868;8.660;2023-02-15T03:08:43;11.97;;;5.13;;
4909;SDS011;2470;49.868;8.660;2023-02-15T03:11:13;16.10;;;6.60;;
4909;SDS011;2470;49.868;8.660;2023-02-15T03:13:39;11.50;;;5.97;;
4909;SDS011;2470;49.868;8.660;2023-02-15T03:16:05;13.63;;;6.87;;
4909;SDS011;2470;49.868;8.660;2023-02-15T03:19:02;14.57;;;7.00;;
4909;SDS011;2470;49.868;8.660;2023-02-15T03:21:39;14.93;;;5.90;;
4909;SDS011;2470;49.868;8.660;2023-02-15T03:24:14;14.20;;;7.90;;
4909;SDS011;2470;49.868;8.660;2023-02-15T03:26:47;9.90;;;5.60;;
4909;SDS011;2470;49.868;8.660;2023-02-15T03:29:15;16.33;;;5.60;;
4909;SDS011;2470;49.868;8.660;2023-02-15T03:31:44;9.37;;;6.80;;
4909;SDS011;2470;49.868;8.660;2023-02-15T03:34:13;11.90;;;6.47;;
4909;SDS011;2470;49.868;8.660;2023-02-15T03:36:52;8.40;;;5.53;;
4909;SDS011;2470;49.868;8.660;2023-02-15T03:39:37;27.70;;;6.87;;
4909;SDS011;2470;49.868;8.660;2023-02-15T03:42:19;19.50;;;7.40;;
4909;SDS011;2470;49.868;8.660;2023-02-15T03:47:19;12.77;;;6.83;;
4909;SDS011;2470;49.868;8.660;2023-02-15T03:49:57;20.67;;;7.30;;
4909;SDS011;2470;49.868;8.660;2023-02-15T03:52:55;8.97;;;5.50;;
4909;SDS011;2470;49.868;8.660;2023-02-15T03:55:23;15.33;;;6.87;;
4909;SDS011;2470;49.868;8.660;2023-02-15T03:57:49;14.80;;;7.77;;
4909;SDS011;2470;49.868;8.660;2023-02-15T04:00:34;9.87;;;6.37;;
4909;SDS011;2470;49.868;8.660;2023-02-15T04:03:22;14.23;;;7.00;;
4909;SDS011;2470;49.868;8.660;2023-02-15T04:05:56;16.57;;;4.97;;
4909;SDS011;2470;49.868;8.660;2023-02-15T04:08:21;14.07;;;9.73;;
4909;SDS011;2470;49.868;8.660;2023-02-15T04:11:07;13.03;;;6.73;;
4909;SDS011;2470;49.868;8.660;2023-02-15T04:13:32;18.57;;;5.70;;
4909;SDS011;2470;49.868;8.660;2023-02-15T04:15:58;12.73;;;5.60;;
4909;SDS011;2470;49.868;8.660;2023-02-15T04:18:33;13.43;;;7.23;;
4909;SDS011;2470;49.868;8.660;2023-02-15T04:21:20;19.90;;;8.20;;
4909;SDS011;2470;49.868;8.660;2023-02-15T04:24:05;10.30;;;5.73;;
4909;SDS011;2470;49.868;8.660;2023-02-15T04:26:49;14.33;;;7.20;;
4909;SDS011;2470;49.868;8.660;2023-02-15T04:29:18;10.40;;;5.20;;
4909;SDS011;2470;49.868;8.660;2023-02-15T04:31:45;14.57;;;8.17;;
4909;SDS011;2470;49.868;8.660;2023-02-15T04:34:10;10.60;;;5.30;;
4909;SDS011;2470;49.868;8.660;2023-02-15T04:36:39;13.77;;;6.13;;
4909;SDS011;2470;49.868;8.660;2023-02-15T04:39:05;19.17;;;6.70;;
4909;SDS011;2470;49.868;8.660;2023-02-15T04:41:32;20.67;;;7.67;;
4909;SDS011;2470;49.868;8.660;2023-02-15T04:43:58;8.53;;;4.93;;
4909;SDS011;2470;49.868;8.660;2023-02-15T04:46:25;15.20;;;7.90;;
4909;SDS011;2470;49.868;8.660;2023-02-15T04:48:51;17.70;;;7.80;;
4909;SDS011;2470;49.868;8.660;2023-02-15T04:51:16;18.20;;;6.23;;
4909;SDS011;2470;49.868;8.660;2023-02-15T04:53:42;12.50;;;6.37;;
4909;SDS011;2470;49.868;8.660;2023-02-15T04:56:07;12.57;;;5.77;;
4909;SDS011;2470;49.868;8.660;2023-02-15T04:58:33;11.17;;;5.93;;
4909;SDS011;2470;49.868;8.660;2023-02-15T05:00:59;14.70;;;7.00;;
4909;SDS011;2470;49.868;8.660;2023-02-15T05:03:25;15.27;;;5.63;;
4909;SDS011;2470;49.868;8.660;2023-02-15T05:05:51;9.43;;;5.80;;
4909;SDS011;2470;49.868;8.660;2023-02-15T05:08:16;11.47;;;5.70;;
4909;SDS011;2470;49.868;8.660;2023-02-15T05:10:42;10.23;;;6.53;;
4909;SDS011;2470;49.868;8.660;2023-02-15T05:13:08;11.97;;;6.20;;
4909;SDS011;2470;49.868;8.660;2023-02-15T05:15:33;13.93;;;7.33;;
4909;SDS011;2470;49.868;8.660;2023-02-15T05:17:59;12.07;;;7.33;;
4909;SDS011;2470;49.868;8.660;2023-02-15T05:20:26;12.20;;;6.03;;
4909;SDS011;2470;49.868;8.660;2023-02-15T05:22:54;9.77;;;4.73;;
4909;SDS011;2470;49.868;8.660;2023-02-15T05:25:20;16.60;;;8.63;;
4909;SDS011;2470;49.868;8.660;2023-02-15T05:28:04;17.60;;;8.20;;
4909;SDS011;2470;49.868;8.660;2023-02-15T05:30:56;18.87;;;7.83;;
4909;SDS011;2470;49.868;8.660;2023-02-15T05:33:29;10.50;;;6.53;;
4909;SDS011;2470;49.868;8.660;2023-02-15T05:35:55;10.47;;;3.70;;
4909;SDS011;2470;49.868;8.660;2023-02-15T05:38:20;13.60;;;6.70;;
4909;SDS011;2470;49.868;8.660;2023-02-15T05:40:46;10.70;;;6.37;;
4909;SDS011;2470;49.868;8.660;2023-02-15T05:43:11;8.33;;;4.63;;
4909;SDS011;2470;49.868;8.660;2023-02-15T05:45:37;10.80;;;5.90;;
4909;SDS011;2470;49.868;8.660;2023-02-15T05:48:02;11.13;;;7.00;;
4909;SDS011;2470;49.868;8.660;2023-02-15T05:50:28;11.30;;;4.90;;
4909;SDS011;2470;49.868;8.660;2023-02-15T05:52:53;15.67;;;6.40;;
4909;SDS011;2470;49.868;8.660;2023-02-15T05:55:19;11.93;;;5.80;;
4909;SDS011;2470;49.868;8.660;2023-02-15T05:57:45;16.70;;;6.00;;
4909;SDS011;2470;49.868;8.660;2023-02-15T06:00:11;11.20;;;5.70;;
4909;SDS011;2470;49.868;8.660;2023-02-15T06:02:37;13.07;;;6.30;;
4909;SDS011;2470;49.868;8.660;2023-02-15T06:05:03;13.47;;;6.60;;
4909;SDS011;2470;49.868;8.660;2023-02-15T06:07:29;7.03;;;6.07;;
4909;SDS011;2470;49.868;8.660;2023-02-15T06:09:55;13.27;;;5.90;;
4909;SDS011;2470;49.868;8.660;2023-02-15T06:12:20;11.97;;;5.13;;
4909;SDS011;2470;49.868;8.660;2023-02-15T06:14:46;13.40;;;6.10;;
4909;SDS011;2470;49.868;8.660;2023-02-15T06:17:12;13.17;;;6.93;;
4909;SDS011;2470;49.868;8.660;2023-02-15T06:19:37;13.27;;;5.03;;
4909;SDS011;2470;49.868;8.660;2023-02-15T06:22:02;11.07;;;5.47;;
4909;SDS011;2470;49.868;8.660;2023-02-15T06:24:28;13.40;;;5.13;;
4909;SDS011;2470;49.868;8.660;2023-02-15T06:26:53;13.53;;;6.10;;
4909;SDS011;2470;49.868;8.660;2023-02-15T06:29:19;11.20;;;6.17;;
4909;SDS011;2470;49.868;8.660;2023-02-15T06:31:44;6.67;;;4.83;;
4909;SDS011;2470;49.868;8.660;2023-02-15T06:34:10;9.60;;;4.90;;
4909;SDS011;2470;49.868;8.660;2023-02-15T06:36:35;15.70;;;8.33;;
4909;SDS011;2470;49.868;8.660;2023-02-15T06:39:01;13.73;;;5.40;;
4909;SDS011;2470;49.868;8.660;2023-02-15T06:41:28;10.23;;;5.00;;
4909;SDS011;2470;49.868;8.660;2023-02-15T06:43:53;9.60;;;5.13;;
4909;SDS011;2470;49.868;8.660;2023-02-15T06:46:18;8.67;;;6.30;;
4909;SDS011;2470;49.868;8.660;2023-02-15T06:48:44;12.30;;;6.13;;
4909;SDS011;2470;49.868;8.660;2023-02-15T06:51:09;11.73;;;5.93;;
4909;SDS011;2470;49.868;8.660;2023-02-15T06:53:35;10.63;;;5.20;;
4909;SDS011;2470;49.868;8.660;2023-02-15T06:56:04;7.00;;;4.60;;
4909;SDS011;2470;49.868;8.660;2023-02-15T06:58:33;27.23;;;5.73;;
4909;SDS011;2470;49.868;8.660;2023-02-15T07:01:00;12.70;;;6.47;;
4909;SDS011;2470;49.868;8.660;2023-02-15T07:03:25;14.40;;;6.87;;
4909;SDS011;2470;49.868;8.660;2023-02-15T07:05:57;6.40;;;3.80;;
4909;SDS011;2470;49.868;8.660;2023-02-15T07:08:25;8.80;;;5.00;;
4909;SDS011;2470;49.868;8.660;2023-02-15T07:10:51;30.13;;;5.10;;
4909;SDS011;2470;49.868;8.660;2023-02-15T07:13:18;16.70;;;7.37;;
4909;SDS011;2470;49.868;8.660;2023-02-15T07:15:44;21.60;;;6.20;;
4909;SDS011;2470;49.868;8.660;2023-02-15T07:18:10;16.10;;;6.40;;
4909;SDS011;2470;49.868;8.660;2023-02-15T07:20:36;11.33;;;5.87;;
4909;SDS011;2470;49.868;8.660;2023-02-15T07:23:03;15.83;;;6.33;;
4909;SDS011;2470;49.868;8.660;2023-02-15T07:25:29;14.20;;;7.27;;
4909;SDS011;2470;49.868;8.660;2023-02-15T07:27:56;25.23;;;6.37;;
4909;SDS011;2470;49.868;8.660;2023-02-15T07:30:22;14.60;;;6.03;;
4909;SDS011;2470;49.868;8.660;2023-02-15T07:32:48;10.67;;;5.63;;
4909;SDS011;2470;49.868;8.660;2023-02-15T07:35:47;19.87;;;7.17;;
4909;SDS011;2470;49.868;8.660;2023-02-15T07:38:13;12.80;;;5.00;;
4909;SDS011;2470;49.868;8.660;2023-02-15T07:40:39;7.73;;;5.33;;
4909;SDS011;2470;49.868;8.660;2023-02-15T07:43:04;9.33;;;5.60;;
4909;SDS011;2470;49.868;8.660;2023-02-15T07:45:30;12.80;;;6.03;;
4909;SDS011;2470;49.868;8.660;2023-02-15T07:47:55;27.37;;;9.17;;
4909;SDS011;2470;49.868;8.660;2023-02-15T07:50:21;10.63;;;5.43;;
4909;SDS011;2470;49.868;8.660;2023-02-15T07:52:46;15.57;;;7.27;;
4909;SDS011;2470;49.868;8.660;2023-02-15T07:55:12;8.37;;;5.60;;
4909;SDS011;2470;49.868;8.660;2023-02-15T07:57:41;7.80;;;4.80;;
4909;SDS011;2470;49.868;8.660;2023-02-15T08:00:08;23.30;;;7.47;;
4909;SDS011;2470;49.868;8.660;2023-02-15T08:02:34;12.17;;;5.60;;
4909;SDS011;2470;49.868;8.660;2023-02-15T08:05:01;16.90;;;8.20;;
4909;SDS011;2470;49.868;8.660;2023-02-15T08:07:27;11.80;;;5.77;;
4909;SDS011;2470;49.868;8.660;2023-02-15T08:09:53;23.50;;;8.60;;
4909;SDS011;2470;49.868;8.660;2023-02-15T08:12:18;14.43;;;7.53;;
4909;SDS011;2470;49.868;8.660;2023-02-15T08:14:44;15.77;;;7.93;;
4909;SDS011;2470;49.868;8.660;2023-02-15T08:17:10;22.80;;;7.57;;
4909;SDS011;2470;49.868;8.660;2023-02-15T08:19:35;16.40;;;8.10;;
4909;SDS011;2470;49.868;8.660;2023-02-15T08:22:02;16.07;;;6.20;;
4909;SDS011;2470;49.868;8.660;2023-02-15T08:24:30;20.73;;;6.97;;
4909;SDS011;2470;49.868;8.660;2023-02-15T08:27:02;13.10;;;7.40;;
4909;SDS011;2470;49.868;8.660;2023-02-15T08:29:28;22.47;;;8.07;;
4909;SDS011;2470;49.868;8.660;2023-02-15T08:31:56;18.30;;;5.87;;
4909;SDS011;2470;49.868;8.660;2023-02-15T08:34:26;14.50;;;6.20;;
4909;SDS011;2470;49.868;8.660;2023-02-15T08:36:52;19.00;;;7.40;;
4909;SDS011;2470;49.868;8.660;2023-02-15T08:39:18;13.30;;;6.50;;
4909;SDS011;2470;49.868;8.660;2023-02-15T08:41:44;17.87;;;7.23;;
4909;SDS011;2470;49.868;8.660;2023-02-15T08:44:11;11.00;;;6.00;;
4909;SDS011;2470;49.868;8.660;2023-02-15T08:46:38;16.63;;;6.83;;
4909;SDS011;2470;49.868;8.660;2023-02-15T08:49:05;15.63;;;7.80;;
4909;SDS011;2470;49.868;8.660;2023-02-15T08:51:32;18.93;;;7.17;;
4909;SDS011;2470;49.868;8.660;2023-02-15T08:54:01;16.80;;;6.23;;
4909;SDS011;2470;49.868;8.660;2023-02-15T08:56:31;27.30;;;8.10;;
4909;SDS011;2470;49.868;8.660;2023-02-15T08:58:58;20.37;;;7.33;;
4909;SDS011;2470;49.868;8.660;2023-02-15T09:01:24;16.73;;;8.33;;
4909;SDS011;2470;49.868;8.660;2023-02-15T09:03:56;18.73;;;7.50;;
4909;SDS011;2470;49.868;8.660;2023-02-15T09:06:23;17.77;;;8.10;;
4909;SDS011;2470;49.868;8.660;2023-02-15T09:08:49;16.43;;;7.70;;
4909;SDS011;2470;49.868;8.660;2023-02-15T09:11:17;15.17;;;7.03;;
4909;SDS011;2470;49.868;8.660;2023-02-15T09:13:54;16.97;;;6.83;;
4909;SDS011;2470;49.868;8.660;2023-02-15T09:16:21;9.43;;;5.97;;
4909;SDS011;2470;49.868;8.660;2023-02-15T09:18:50;18.20;;;6.87;;
4909;SDS011;2470;49.868;8.660;2023-02-15T09:21:17;23.37;;;8.63;;
4909;SDS011;2470;49.868;8.660;2023-02-15T09:23:45;23.13;;;7.23;;
4909;SDS011;2470;49.868;8.660;2023-02-15T09:26:13;14.77;;;7.00;;
4909;SDS011;2470;49.868;8.660;2023-02-15T09:28:40;17.10;;;7.07;;
4909;SDS011;2470;49.868;8.660;2023-02-15T09:31:10;15.20;;;7.80;;
4909;SDS011;2470;49.868;8.660;2023-02-15T09:33:38;15.63;;;8.13;;
4909;SDS011;2470;49.868;8.660;2023-02-15T09:36:05;21.63;;;9.20;;
4909;SDS011;2470;49.868;8.660;2023-02-15T09:38:38;24.20;;;9.63;;
4909;SDS011;2470;49.868;8.660;2023-02-15T09:44:01;29.57;;;8.90;;
4909;SDS011;2470;49.868;8.660;2023-02-15T09:49:43;16.90;;;8.77;;
4909;SDS011;2470;49.868;8.660;2023-02-15T09:58:53;20.60;;;9.97;;
4909;SDS011;2470;49.868;8.660;2023-02-15T10:01:04;18.43;;;7.13;;
4909;SDS011;2470;49.868;8.660;2023-02-15T10:03:48;20.73;;;10.00;;
4909;SDS011;2470;49.868;8.660;2023-02-15T10:06:35;16.70;;;7.93;;
4909;SDS011;2470;49.868;8.660;2023-02-15T10:09:09;27.63;;;9.90;;
4909;SDS011;2470;49.868;8.660;2023-02-15T10:12:01;20.97;;;8.77;;
4909;SDS011;2470;49.868;8.660;2023-02-15T10:25:46;21.70;;;8.90;;
4909;SDS011;2470;49.868;8.660;2023-02-15T10:28:42;25.10;;;7.27;;
4909;SDS011;2470;49.868;8.660;2023-02-15T10:31:25;10.87;;;7.40;;
4909;SDS011;2470;49.868;8.660;2023-02-15T10:56:29;19.60;;;9.03;;
4909;SDS011;2470;49.868;8.660;2023-02-15T11:07:04;25.53;;;8.17;;
4909;SDS011;2470;49.868;8.660;2023-02-15T11:09:37;17.00;;;7.27;;
4909;SDS011;2470;49.868;8.660;2023-02-15T11:12:08;18.17;;;8.07;;
4909;SDS011;2470;49.868;8.660;2023-02-15T11:17:25;10.63;;;5.70;;
4909;SDS011;2470;49.868;8.660;2023-02-15T11:22:56;22.10;;;8.47;;
4909;SDS011;2470;49.868;8.660;2023-02-15T11:25:34;38.23;;;11.43;;
4909;SDS011;2470;49.868;8.660;2023-02-15T11:28:03;25.83;;;8.77;;
4909;SDS011;2470;49.868;8.660;2023-02-15T11:30:53;21.37;;;8.97;;
4909;SDS011;2470;49.868;8.660;2023-02-15T11:33:22;22.23;;;10.83;;
4909;SDS011;2470;49.868;8.660;2023-02-15T11:35:57;24.30;;;6.90;;
4909;SDS011;2470;49.868;8.660;2023-02-15T11:38:33;20.33;;;10.13;;
4909;SDS011;2470;49.868;8.660;2023-02-15T11:41:01;23.53;;;9.10;;
4909;SDS011;2470;49.868;8.660;2023-02-15T11:43:39;21.87;;;7.10;;
4909;SDS011;2470;49.868;8.660;2023-02-15T11:46:18;27.43;;;10.10;;
4909;SDS011;2470;49.868;8.660;2023-02-15T11:48:45;22.70;;;10.50;;
4909;SDS011;2470;49.868;8.660;2023-02-15T11:51:14;22.03;;;8.07;;
4909;SDS011;2470;49.868;8.660;2023-02-15T11:53:42;17.37;;;8.03;;
4909;SDS011;2470;49.868;8.660;2023-02-15T11:56:15;17.40;;;8.77;;
4909;SDS011;2470;49.868;8.660;2023-02-15T12:01:30;26.33;;;9.70;;
4909;SDS011;2470;49.868;8.660;2023-02-15T12:04:04;27.00;;;10.90;;
4909;SDS011;2470;49.868;8.660;2023-02-15T12:07:23;21.57;;;8.47;;
4909;SDS011;2470;49.868;8.660;2023-02-15T12:10:02;21.67;;;10.33;;
4909;SDS011;2470;49.868;8.660;2023-02-15T12:15:38;28.87;;;10.27;;
4909;SDS011;2470;49.868;8.660;2023-02-15T12:18:15;21.77;;;9.87;;
4909;SDS011;2470;49.868;8.660;2023-02-15T12:20:44;26.20;;;11.43;;
4909;SDS011;2470;49.868;8.660;2023-02-15T12:23:13;27.63;;;10.83;;
4909;SDS011;2470;49.868;8.660;2023-02-15T12:25:41;29.17;;;9.77;;
4909;SDS011;2470;49.868;8.660;2023-02-15T12:30:49;24.77;;;9.40;;
4909;SDS011;2470;49.868;8.660;2023-02-15T12:33:20;27.03;;;9.20;;
4909;SDS011;2470;49.868;8.660;2023-02-15T12:36:09;20.03;;;10.67;;
4909;SDS011;2470;49.868;8.660;2023-02-15T12:38:42;28.27;;;11.47;;
4909;SDS011;2470;49.868;8.660;2023-02-15T12:41:24;29.83;;;10.80;;
4909;SDS011;2470;49.868;8.660;2023-02-15T12:44:04;24.77;;;10.70;;
4909;SDS011;2470;49.868;8.660;2023-02-15T12:46:55;24.07;;;10.80;;
4909;SDS011;2470;49.868;8.660;2023-02-15T12:49:26;27.13;;;10.30;;
4909;SDS011;2470;49.868;8.660;2023-02-15T12:51:53;23.23;;;8.50;;
4909;SDS011;2470;49.868;8.660;2023-02-15T12:54:39;21.17;;;9.23;;
4909;SDS011;2470;49.868;8.660;2023-02-15T12:57:15;27.30;;;10.43;;
4909;SDS011;2470;49.868;8.660;2023-02-15T12:59:54;25.43;;;10.97;;
4909;SDS011;2470;49.868;8.660;2023-02-15T13:02:23;36.10;;;10.77;;
4909;SDS011;2470;49.868;8.660;2023-02-15T13:10:41;22.27;;;9.93;;
4909;SDS011;2470;49.868;8.660;2023-02-15T13:13:18;23.37;;;9.57;;
4909;SDS011;2470;49.868;8.660;2023-02-15T13:15:47;24.33;;;10.13;;
4909;SDS011;2470;49.868;8.660;2023-02-15T13:18:16;30.57;;;10.43;;
4909;SDS011;2470;49.868;8.660;2023-02-15T13:20:48;23.97;;;11.20;;
4909;SDS011;2470;49.868;8.660;2023-02-15T13:23:22;29.70;;;11.63;;
4909;SDS011;2470;49.868;8.660;2023-02-15T13:25:54;25.20;;;9.80;;
4909;SDS011;2470;49.868;8.660;2023-02-15T13:28:24;20.43;;;9.00;;
4909;SDS011;2470;49.868;8.660;2023-02-15T13:30:56;20.10;;;8.97;;
4909;SDS011;2470;49.868;8.660;2023-02-15T13:33:26;24.03;;;10.30;;
4909;SDS011;2470;49.868;8.660;2023-02-15T13:36:21;25.67;;;10.13;;
4909;SDS011;2470;49.868;8.660;2023-02-15T13:38:55;24.80;;;11.20;;
4909;SDS011;2470;49.868;8.660;2023-02-15T13:50:29;15.50;;;7.90;;
4909;SDS011;2470;49.868;8.660;2023-02-15T13:56:43;17.20;;;8.40;;
4909;SDS011;2470;49.868;8.660;2023-02-15T13:59:17;35.77;;;13.00;;
4909;SDS011;2470;49.868;8.660;2023-02-15T14:02:30;25.80;;;10.20;;
4909;SDS011;2470;49.868;8.660;2023-02-15T14:13:24;26.57;;;10.07;;
4909;SDS011;2470;49.868;8.660;2023-02-15T14:16:06;17.60;;;9.30;;
4909;SDS011;2470;49.868;8.660;2023-02-15T14:19:13;28.43;;;10.20;;
4909;SDS011;2470;49.868;8.660;2023-02-15T14:22:06;36.53;;;12.80;;
4909;SDS011;2470;49.868;8.660;2023-02-15T14:24:56;24.17;;;9.10;;
4909;SDS011;2470;49.868;8.660;2023-02-15T14:30:34;26.67;;;11.43;;
4909;SDS011;2470;49.868;8.660;2023-02-15T14:33:06;21.07;;;9.23;;
4909;SDS011;2470;49.868;8.660;2023-02-15T14:35:33;28.73;;;8.77;;
4909;SDS011;2470;49.868;8.660;2023-02-15T14:40:49;27.80;;;11.40;;
4909;SDS011;2470;49.868;8.660;2023-02-15T14:43:35;19.13;;;9.93;;
4909;SDS011;2470;49.868;8.660;2023-02-15T14:48:45;25.47;;;12.47;;
4909;SDS011;2470;49.868;8.660;2023-02-15T15:04:35;25.30;;;11.93;;
4909;SDS011;2470;49.868;8.660;2023-02-15T15:07:17;28.63;;;11.50;;
4909;SDS011;2470;49.868;8.660;2023-02-15T15:09:48;24.17;;;10.60;;
4909;SDS011;2470;49.868;8.660;2023-02-15T15:14:57;32.30;;;12.20;;
4909;SDS011;2470;49.868;8.660;2023-02-15T15:19:58;24.53;;;11.00;;
4909;SDS011;2470;49.868;8.660;2023-02-15T15:22:32;23.63;;;10.87;;
4909;SDS011;2470;49.868;8.660;2023-02-15T15:25:00;30.83;;;13.70;;
4909;SDS011;2470;49.868;8.660;2023-02-15T15:41:32;29.50;;;11.10;;
4909;SDS011;2470;49.868;8.660;2023-02-15T15:49:54;34.77;;;12.50;;
4909;SDS011;2470;49.868;8.660;2023-02-15T15:52:22;23.47;;;9.73;;
4909;SDS011;2470;49.868;8.660;2023-02-15T15:54:50;32.27;;;12.13;;
4909;SDS011;2470;49.868;8.660;2023-02-15T15:57:40;16.17;;;8.63;;
4909;SDS011;2470;49.868;8.660;2023-02-15T16:02:52;20.83;;;9.33;;
4909;SDS011;2470;49.868;8.660;2023-02-15T16:05:18;23.23;;;8.90;;
4909;SDS011;2470;49.868;8.660;2023-02-15T16:07:44;24.60;;;10.60;;
4909;SDS011;2470;49.868;8.660;2023-02-15T16:10:20;31.40;;;11.10;;
4909;SDS011;2470;49.868;8.660;2023-02-15T16:12:48;27.27;;;10.53;;
4909;SDS011;2470;49.868;8.660;2023-02-15T16:15:18;28.17;;;10.70;;
4909;SDS011;2470;49.868;8.660;2023-02-15T16:17:49;33.00;;;10.93;;
4909;SDS011;2470;49.868;8.660;2023-02-15T16:20:21;26.30;;;10.50;;
4909;SDS011;2470;49.868;8.660;2023-02-15T16:22:50;35.63;;;12.23;;
4909;SDS011;2470;49.868;8.660;2023-02-15T16:25:40;26.83;;;10.73;;
4909;SDS011;2470;49.868;8.660;2023-02-15T16:28:26;19.57;;;9.67;;
4909;SDS011;2470;49.868;8.660;2023-02-15T16:31:12;25.50;;;9.60;;
4909;SDS011;2470;49.868;8.660;2023-02-15T16:33:39;17.93;;;9.30;;
4909;SDS011;2470;49.868;8.660;2023-02-15T16:36:10;35.87;;;11.50;;
4909;SDS011;2470;49.868;8.660;2023-02-15T16:41:12;18.43;;;9.23;;
4909;SDS011;2470;49.868;8.660;2023-02-15T16:43:50;26.47;;;9.10;;
4909;SDS011;2470;49.868;8.660;2023-02-15T16:46:23;32.43;;;13.57;;
4909;SDS011;2470;49.868;8.660;2023-02-15T16:48:52;34.63;;;12.80;;
4909;SDS011;2470;49.868;8.660;2023-02-15T16:51:22;44.87;;;11.33;;
4909;SDS011;2470;49.868;8.660;2023-02-15T16:53:51;21.87;;;9.97;;
4909;SDS011;2470;49.868;8.660;2023-02-15T16:56:22;29.13;;;13.20;;
4909;SDS011;2470;49.868;8.660;2023-02-15T16:58:51;24.90;;;10.33;;
4909;SDS011;2470;49.868;8.660;2023-02-15T17:01:20;38.03;;;14.37;;
4909;SDS011;2470;49.868;8.660;2023-02-15T17:03:49;23.70;;;9.87;;
4909;SDS011;2470;49.868;8.660;2023-02-15T17:06:19;22.93;;;11.33;;
4909;SDS011;2470;49.868;8.660;2023-02-15T17:08:47;36.17;;;11.50;;
4909;SDS011;2470;49.868;8.660;2023-02-15T17:11:14;37.13;;;13.90;;
4909;SDS011;2470;49.868;8.660;2023-02-15T17:14:09;25.87;;;12.00;;
4909;SDS011;2470;49.868;8.660;2023-02-15T17:16:35;27.27;;;12.00;;
4909;SDS011;2470;49.868;8.660;2023-02-15T17:19:26;33.20;;;12.63;;
4909;SDS011;2470;49.868;8.660;2023-02-15T17:21:58;25.73;;;11.77;;
4909;SDS011;2470;49.868;8.660;2023-02-15T17:27:03;23.20;;;11.90;;
4909;SDS011;2470;49.868;8.660;2023-02-15T17:29:39;25.37;;;10.20;;
4909;SDS011;2470;49.868;8.660;2023-02-15T17:32:19;30.30;;;11.63;;
4909;SDS011;2470;49.868;8.660;2023-02-15T17:34:48;27.00;;;13.20;;
4909;SDS011;2470;49.868;8.660;2023-02-15T17:39:53;20.20;;;10.57;;
4909;SDS011;2470;49.868;8.660;2023-02-15T17:42:19;29.53;;;13.70;;
4909;SDS011;2470;49.868;8.660;2023-02-15T17:44:45;31.90;;;11.30;;
4909;SDS011;2470;49.868;8.660;2023-02-15T17:47:13;29.27;;;12.27;;
4909;SDS011;2470;49.868;8.660;2023-02-15T17:49:42;20.43;;;9.67;;
4909;SDS011;2470;49.868;8.660;2023-02-15T17:52:11;24.40;;;9.90;;
4909;SDS011;2470;49.868;8.660;2023-02-15T17:54:38;36.93;;;13.23;;
4909;SDS011;2470;49.868;8.660;2023-02-15T17:57:23;31.23;;;10.10;;
4909;SDS011;2470;49.868;8.660;2023-02-15T17:59:50;29.23;;;11.73;;
4909;SDS011;2470;49.868;8.660;2023-02-15T18:02:34;28.33;;;11.70;;
4909;SDS011;2470;49.868;8.660;2023-02-15T18:05:18;22.70;;;10.73;;
4909;SDS011;2470;49.868;8.660;2023-02-15T18:08:04;24.23;;;10.83;;
4909;SDS011;2470;49.868;8.660;2023-02-15T18:10:52;33.50;;;12.20;;
4909;SDS011;2470;49.868;8.660;2023-02-15T18:13:36;27.90;;;11.70;;
4909;SDS011;2470;49.868;8.660;2023-02-15T18:16:02;20.00;;;10.80;;
4909;SDS011;2470;49.868;8.660;2023-02-15T18:18:28;19.97;;;11.20;;